Latest Weather Observations for Julia Creek

IDQ60801

Issued at 1:02 pm EST Sunday 30 August 2015 (issued every 30 minutes, with the page automatically refreshed every 10 minutes)

About weather observations | Map of weather stations | Latest weather observations for QLD | Other Formats
Station Details ID: 029058 Name: JULIA CREEK AIRPORT Lat: -20.67 Lon: 141.72 Height: 122.5 m
Data from the previous 72 hours. | See also: Recent months at Julia Creek
Date/Time
EST
Temp
°C
App
Temp
°C
Dew
Point
Rel
Hum
%
Delta-T
°C
Wind Press
QNH
hPa
Press
MSL
hPa
Rain
since 9 am
mm
Dir
 
Spd
km/h
Gust
km/h
Spd
kts
Gust
kts
30/01:00pm 28.9 24.4 2.2 18 13.2 S 15 28 8 15 1017.4 1017.1 0.0
30/12:30pm 28.0 23.4 3.7 21 12.3 S 17 28 9 15 1018.0 1017.7 0.0
30/12:00pm 28.1 23.6 4.4 22 12.1 SE 17 28 9 15 1018.6 1018.3 0.0
30/11:30am 26.9 22.4 4.0 23 11.6 SE 17 32 9 17 1019.1 1018.8 0.0
30/11:00am 26.9 22.2 5.2 25 11.2 ESE 19 32 10 17 1019.5 1019.2 0.0
30/10:30am 26.2 21.3 5.2 26 10.8 ESE 20 28 11 15 1019.7 1019.4 0.0
30/10:00am 24.7 19.6 6.0 30 9.6 SE 22 30 12 16 1019.9 1019.6 0.0
30/09:30am 23.9 18.5 6.2 32 9.1 SE 24 32 13 17 1019.9 1019.6 0.0
30/09:00am 21.7 16.5 5.6 35 8.1 SSE 22 26 12 14 1020.0 1019.7 0.0
30/08:30am 20.0 15.2 5.6 39 7.1 SSE 20 26 11 14 1019.9 1019.6 0.0
30/08:00am 18.2 13.5 5.1 42 6.3 S 19 24 10 13 1019.7 1019.4 0.0
30/07:30am 15.8 11.4 2.9 42 5.9 S 15 20 8 11 1019.4 1019.1 0.0
30/07:00am 14.7 10.6 2.3 43 5.5 S 13 17 7 9 1019.0 1018.7 0.0
30/06:30am 14.9 10.4 2.1 42 5.7 S 15 17 8 9 1018.6 1018.3 0.0
30/06:00am 15.2 10.6 1.7 40 5.9 S 15 19 8 10 1018.1 1017.8 0.0
30/05:30am 15.9 11.8 2.0 39 6.2 S 13 17 7 9 1018.0 1017.7 0.0
30/05:00am 16.3 12.1 1.6 37 6.5 S 13 15 7 8 1017.8 1017.5 0.0
30/04:30am 16.9 12.3 1.8 36 6.8 S 15 17 8 9 1017.5 1017.2 0.0
30/04:00am 17.7 13.2 2.1 35 7.1 SSE 15 19 8 10 1017.4 1017.1 0.0
30/03:30am 17.9 13.0 1.8 34 7.3 S 17 20 9 11 1017.4 1017.1 0.0
30/03:00am 17.0 13.4 0.6 33 7.2 S 9 11 5 6 1017.7 1017.4 0.0
30/02:30am 17.5 14.3 0.6 32 7.4 SSE 7 9 4 5 1017.7 1017.4 0.0
30/02:00am 18.4 14.1 1.0 31 7.8 S 13 15 7 8 1018.0 1017.7 0.0
30/01:30am 19.6 15.8 1.6 30 8.2 SSE 11 13 6 7 1018.2 1017.9 0.0
30/01:00am 20.5 16.3 1.9 29 8.6 SE 13 17 7 9 1018.1 1017.8 0.0
30/12:30am 20.9 16.7 1.7 28 8.9 SE 13 17 7 9 1018.0 1017.7 0.0
30/12:00am 21.4 16.8 1.7 27 9.1 SSE 15 20 8 11 1017.9 1017.6 0.0
 
Date/Time
EST
Temp
°C
App
Temp
°C
Dew
Point
Rel
Hum
%
Delta-T
°C
Wind Press
QNH
hPa
Press
MSL
hPa
Rain
since 9 am
mm
Dir
 
Spd
km/h
Gust
km/h
Spd
kts
Gust
kts
29/11:30pm 21.9 17.0 2.1 27 9.3 SSE 17 19 9 10 1017.7 1017.4 0.0
29/11:00pm 22.3 17.0 1.9 26 9.6 SSE 19 22 10 12 1017.5 1017.2 0.0
29/10:30pm 22.7 17.4 1.7 25 9.9 SSE 19 22 10 12 1017.5 1017.2 0.0
29/10:00pm 23.7 18.2 2.0 24 10.3 SSE 20 24 11 13 1017.4 1017.1 0.0
29/09:30pm 24.6 18.4 2.1 23 10.8 SSE 24 32 13 17 1017.5 1017.2 0.0
29/09:00pm 25.1 19.2 1.9 22 11.1 S 22 28 12 15 1017.3 1017.0 0.0
29/08:30pm 26.1 19.5 2.1 21 11.6 S 26 32 14 17 1017.0 1016.7 0.0
29/08:00pm 27.6 20.0 2.6 20 12.3 S 32 41 17 22 1016.4 1016.1 0.0
29/07:58pm 27.6 20.0 2.6 20 12.4 S 32 41 17 22 1016.4 1016.1 0.0
29/07:30pm 28.5 24.1 4.7 22 12.3 SSW 17 22 9 12 1016.0 1015.6 0.0
29/07:00pm 29.3 25.0 5.4 22 12.5 SSW 17 24 9 13 1015.7 1015.3 0.0
29/06:30pm 29.9 26.0 5.2 21 13.0 SSW 15 20 8 11 1015.3 1014.9 0.0
29/06:00pm 31.0 28.0 6.1 21 13.3 SW 11 17 6 9 1015.1 1014.7 0.0
29/05:30pm 30.9 28.3 6.0 21 13.3 SW 9 13 5 7 1014.8 1014.4 0.0
29/05:00pm 31.3 28.8 6.4 21 13.4 WSW 9 15 5 8 1014.6 1014.2 0.0
29/04:30pm 31.8 29.6 6.1 20 13.8 SSW 7 17 4 9 1014.6 1014.2 0.0
29/04:00pm 32.0 30.2 7.0 21 13.7 W 6 13 3 7 1014.6 1014.2 0.0
29/03:30pm 32.0 29.6 7.0 21 13.7 S 9 30 5 16 1014.8 1014.4 0.0
29/03:00pm 31.4 28.6 7.1 22 13.3 SE 11 19 6 10 1015.2 1014.8 0.0
29/02:30pm 31.2 28.2 7.6 23 13.0 SE 13 19 7 10 1015.7 1015.3 0.0
29/02:00pm 31.3 29.8 8.3 24 12.8 S 6 22 3 12 1016.3 1016.0 0.0
29/01:30pm 30.3 28.2 8.1 25 12.2 SSE 9 30 5 16 1016.9 1016.6 0.0
29/01:00pm 29.9 26.7 8.3 26 11.9 SSE 15 26 8 14 1017.5 1017.2 0.0
29/12:30pm 29.4 26.3 7.3 25 12.0 SSE 13 22 7 12 1017.9 1017.6 0.0
29/12:00pm 29.1 25.7 7.7 26 11.6 SE 15 26 8 14 1018.7 1018.4 0.0
29/11:30am 28.7 25.1 8.4 28 11.2 ESE 17 26 9 14 1019.2 1018.9 0.0
29/11:00am 28.0 23.6 6.7 26 11.3 ESE 19 26 10 14 1019.7 1019.4 0.0
29/10:30am 27.4 22.3 6.2 26 11.1 ESE 22 30 12 16 1020.2 1019.9 0.0
29/10:00am 26.3 19.9 5.3 26 10.8 ESE 28 33 15 18 1020.2 1019.9 0.0
29/09:30am 25.8 19.1 3.7 24 11.0 ESE 28 37 15 20 1020.3 1020.0 0.0
29/09:00am 23.9 16.9 2.1 24 10.4 SE 28 35 15 19 1020.6 1020.3 0.0
29/08:30am 22.5 16.4 2.6 27 9.5 SE 24 32 13 17 1020.5 1020.2 0.0
29/08:00am 20.1 14.8 2.0 30 8.4 SSE 19 24 10 13 1020.1 1019.8 0.0
29/07:30am 18.9 14.7 1.9 32 7.8 SSE 13 17 7 9 1019.4 1019.1 0.0
29/07:00am 18.6 14.1 2.0 33 7.6 S 15 19 8 10 1019.4 1019.1 0.0
29/06:30am 18.6 14.5 2.0 33 7.6 S 13 15 7 8 1019.0 1018.7 0.0
29/06:00am 18.3 14.6 2.2 34 7.4 S 11 13 6 7 1018.9 1018.6 0.0
29/05:30am 18.0 14.6 1.9 34 7.3 S 9 11 5 6 1018.7 1018.4 0.0
29/05:00am 18.2 14.8 1.7 33 7.5 ESE 9 11 5 6 1018.4 1018.1 0.0
29/04:30am 19.2 15.5 2.1 32 7.9 SE 11 13 6 7 1018.6 1018.3 0.0
29/04:00am 19.6 15.8 2.0 31 8.1 SE 11 13 6 7 1018.5 1018.2 0.0
29/03:30am 20.0 15.5 2.4 31 8.2 SE 15 17 8 9 1018.5 1018.2 0.0
29/03:00am 20.2 16.1 2.1 30 8.4 SE 13 17 7 9 1018.5 1018.2 0.0
29/02:30am 20.1 16.0 2.0 30 8.4 SSE 13 19 7 10 1018.6 1018.3 0.0
29/02:00am 20.1 15.7 2.5 31 8.2 S 15 20 8 11 1019.0 1018.7 0.0
29/01:30am 20.2 15.0 2.5 31 8.3 SSE 19 24 10 13 1019.1 1018.8 0.0
29/01:00am 20.6 14.8 2.4 30 8.5 S 22 28 12 15 1019.4 1019.1 0.0
29/12:30am 21.0 15.4 3.2 31 8.5 S 22 30 12 16 1019.2 1018.9 0.0
29/12:00am 21.5 16.5 4.6 33 8.3 S 20 24 11 13 1019.3 1019.0 0.0
 
Date/Time
EST
Temp
°C
App
Temp
°C
Dew
Point
Rel
Hum
%
Delta-T
°C
Wind Press
QNH
hPa
Press
MSL
hPa
Rain
since 9 am
mm
Dir
 
Spd
km/h
Gust
km/h
Spd
kts
Gust
kts
28/11:30pm 21.7 17.0 5.2 34 8.2 S 19 24 10 13 1019.2 1018.9 0.0
28/11:00pm 22.2 17.7 6.0 35 8.2 S 19 22 10 12 1019.0 1018.7 0.0
28/10:30pm 22.5 18.1 6.7 36 8.1 S 19 22 10 12 1019.1 1018.8 0.0
28/10:00pm 22.4 18.5 7.0 37 8.0 SSW 17 20 9 11 1019.1 1018.8 0.0
28/09:30pm 23.1 19.6 7.2 36 8.3 S 15 17 8 9 1018.6 1018.3 0.0
28/09:00pm 24.1 20.3 7.7 35 8.7 S 17 20 9 11 1018.5 1018.2 0.0
28/08:30pm 24.9 20.9 8.4 35 8.9 S 19 22 10 12 1018.3 1018.0 0.0
28/08:00pm 24.1 21.5 7.7 35 8.7 S 11 13 6 7 1017.9 1017.6 0.0
28/07:30pm 25.9 23.1 8.4 33 9.5 S 13 17 7 9 1017.3 1017.0 0.0
28/07:00pm 27.3 23.9 9.2 32 10.0 S 17 22 9 12 1017.1 1016.8 0.0
28/06:30pm 28.2 23.9 9.5 31 10.4 S 22 30 12 16 1016.5 1016.2 0.0
28/06:00pm 28.9 25.0 9.6 30 10.8 S 20 28 11 15 1016.1 1015.8 0.0
28/05:30pm 29.4 25.5 9.5 29 11.2 S 20 32 11 17 1015.7 1015.3 0.0
28/05:00pm 30.3 26.5 9.8 28 11.6 SSE 20 28 11 15 1015.3 1014.9 0.0
28/04:30pm 30.4 27.5 9.8 28 11.7 SSE 15 28 8 15 1015.3 1014.9 0.0
28/04:00pm 31.0 28.3 10.4 28 11.8 S 15 24 8 13 1015.5 1015.1 0.0
28/03:30pm 31.1 29.0 11.0 29 11.7 SSW 13 32 7 17 1015.6 1015.2 0.0
28/03:00pm 30.0 27.5 11.0 31 11.0 S 15 26 8 14 1016.0 1015.6 0.0
28/02:30pm 29.8 27.3 10.9 31 10.9 S 15 22 8 12 1016.3 1016.0 0.0
28/02:00pm 29.7 27.5 10.8 31 10.8 SSE 13 24 7 13 1016.8 1016.5 0.0
28/01:30pm 29.4 28.0 12.3 34 10.1 ESE 11 20 6 11 1017.4 1017.1 0.0
28/01:00pm 28.5 27.7 12.8 38 9.3 SSE 9 20 5 11 1017.9 1017.6 0.0
28/12:30pm 27.9 25.5 12.7 39 8.9 SE 17 24 9 13 1018.5 1018.2 0.0
28/12:00pm 27.3 25.1 13.3 42 8.3 SE 17 24 9 13 1019.5 1019.2 0.0
28/11:30am 26.7 24.3 13.8 45 7.7 SE 19 28 10 15 1020.1 1019.8 0.0
28/11:00am 25.0 21.4 13.2 48 6.9 ESE 24 32 13 17 1020.3 1020.0 0.0
28/10:30am 24.2 20.2 13.1 50 6.5 SE 26 37 14 20 1020.8 1020.5 0.0
28/10:00am 23.1 18.6 12.7 52 6.0 SE 28 39 15 21 1021.0 1020.7 0.0
28/09:30am 21.6 16.7 12.5 56 5.2 SE 30 41 16 22 1021.3 1021.0 0.0
28/09:00am 20.3 15.5 13.0 63 4.2 SE 30 37 16 20 1021.2 1020.9 0.0
28/08:30am 18.3 14.2 12.7 70 3.1 SE 26 32 14 17 1021.0 1020.7 0.0
28/08:00am 17.3 14.0 12.8 75 2.5 SE 22 28 12 15 1020.9 1020.6 0.0
28/07:30am 15.8 14.1 12.4 80 1.9 SSE 13 17 7 9 1020.7 1020.4 0.0
28/07:00am 14.8 12.9 11.9 83 1.6 SSE 13 17 7 9 1020.0 1019.7 0.0
28/06:30am 14.6 12.7 11.7 83 1.6 SE 13 17 7 9 1019.7 1019.4 0.0
28/06:00am 14.5 12.5 11.5 82 1.6 SSE 13 17 7 9 1019.5 1019.2 0.0
28/05:30am 14.6 12.6 11.4 81 1.7 S 13 15 7 8 1019.6 1019.3 0.0
28/05:00am 15.1 13.1 11.5 79 1.9 SSE 13 17 7 9 1019.5 1019.2 0.0
28/04:30am 15.8 14.0 12.0 78 2.1 SSE 13 17 7 9 1019.6 1019.3 0.0
28/04:00am 16.1 14.2 11.9 76 2.3 SSE 13 17 7 9 1019.6 1019.3 0.0
28/03:30am 16.7 14.5 12.0 74 2.6 SSE 15 20 8 11 1019.6 1019.3 0.0
28/03:00am 17.2 14.3 12.3 73 2.7 SSE 19 24 10 13 1019.5 1019.2 0.0
28/02:30am 17.6 14.6 12.5 72 2.8 SSE 20 26 11 14 1019.3 1019.0 0.0
28/02:00am 17.8 14.1 12.7 72 2.9 SE 24 32 13 17 1019.1 1018.8 0.0
28/01:30am 18.2 14.5 12.6 70 3.1 SSE 24 30 13 16 1019.5 1019.2 0.0
28/01:00am 18.5 15.2 12.7 69 3.3 SSE 22 30 12 16 1019.9 1019.6 0.0
28/12:30am 18.6 15.8 12.6 68 3.4 SSE 19 26 10 14 1020.0 1019.7 0.0
28/12:00am 18.6 15.7 12.4 67 3.5 SSE 19 24 10 13 1020.0 1019.7 0.0
 
Date/Time
EST
Temp
°C
App
Temp
°C
Dew
Point
Rel
Hum
%
Delta-T
°C
Wind Press
QNH
hPa
Press
MSL
hPa
Rain
since 9 am
mm
Dir
 
Spd
km/h
Gust
km/h
Spd
kts
Gust
kts
27/11:30pm 19.0 16.6 12.5 66 3.7 SSE 17 20 9 11 1020.1 1019.8 0.0
27/11:00pm 19.5 17.1 12.8 65 3.8 S 17 20 9 11 1020.1 1019.8 0.0
27/10:30pm 19.8 17.4 12.8 64 4.0 S 17 20 9 11 1020.3 1020.0 0.0
27/10:00pm 20.3 18.4 13.0 63 4.2 SSE 15 19 8 10 1020.4 1020.1 0.0
27/09:30pm 20.9 18.4 13.4 62 4.3 SSE 19 24 10 13 1020.1 1019.8 0.0
27/09:00pm 20.8 19.5 12.5 59 4.7 SSE 11 15 6 8 1020.1 1019.8 0.0
27/08:30pm 21.8 19.6 13.2 58 5.0 SSE 17 19 9 10 1019.9 1019.6 0.0
27/08:00pm 22.3 19.6 13.6 58 5.1 SE 20 26 11 14 1019.5 1019.2 0.0
27/07:30pm 22.6 19.1 13.4 56 5.3 SSE 24 30 13 16 1019.1 1018.8 0.0
27/07:00pm 22.9 19.1 13.7 56 5.4 SSE 26 33 14 18 1018.7 1018.4 0.0
27/06:30pm 23.2 19.5 13.9 56 5.5 SSE 26 33 14 18 1018.3 1018.0 0.0
27/06:00pm 23.6 19.9 14.0 55 5.6 SSE 26 33 14 18 1017.9 1017.6 0.0
27/05:30pm 23.9 19.9 14.0 54 5.8 SSE 28 35 15 19 1017.9 1017.6 0.0
27/05:00pm 24.2 20.3 14.3 54 5.9 SSE 28 35 15 19 1017.5 1017.2 0.0
27/04:30pm 24.1 19.8 14.5 55 5.7 S 30 35 16 19 1017.2 1016.9 0.0
27/04:00pm 25.7 21.8 14.5 50 6.7 S 28 35 15 19 1017.4 1017.1 0.0
27/03:30pm 25.3 21.5 13.5 48 6.9 S 26 35 14 19 1017.4 1017.1 0.0
27/03:00pm 25.9 22.8 13.4 46 7.4 SSE 22 32 12 17 1017.2 1016.9 0.0
27/02:30pm 26.5 22.7 13.6 45 7.6 S 26 35 14 19 1017.8 1017.5 0.0
27/02:00pm 26.8 23.2 13.2 43 8.0 S 24 37 13 20 1018.1 1017.8 0.0
27/01:30pm 28.0 23.9 12.8 39 9.0 S 26 35 14 19 1018.6 1018.3 0.0

Other Formats:

Comma delimited format used in spreadsheet applications
http://www.bom.gov.au/fwo/IDQ60801/IDQ60801.94337.axf

JavaScript Object Notation format (JSON) in row-major order
http://www.bom.gov.au/fwo/IDQ60801/IDQ60801.94337.json